createdAt,value
2019-05-25T00:01:37.418Z,58.40
2019-05-25T00:03:13.103Z,58.70
2019-05-25T00:04:49.420Z,58.60
2019-05-25T00:06:24.935Z,58.50
2019-05-25T00:08:01.277Z,58.60
2019-05-25T00:09:37.055Z,58.70
2019-05-25T00:11:13.398Z,58.60
2019-05-25T00:12:48.963Z,58.50
2019-05-25T00:14:25.330Z,58.50
2019-05-25T00:16:00.883Z,58.60
2019-05-25T00:17:37.221Z,57.90
2019-05-25T00:19:12.755Z,58.30
2019-05-25T00:20:49.345Z,58.50
2019-05-25T00:22:24.879Z,58.50
2019-05-25T00:24:11.794Z,58.40
2019-05-25T00:25:38.489Z,58.30
2019-05-25T00:27:14.784Z,58.40
2019-05-25T00:28:50.327Z,58.50
2019-05-25T00:30:26.644Z,58.80
2019-05-25T00:32:02.301Z,58.20
2019-05-25T00:33:38.626Z,58.20
2019-05-25T00:35:14.294Z,58.20
2019-05-25T00:36:50.595Z,58.20
2019-05-25T00:38:26.210Z,58.00
2019-05-25T00:40:02.651Z,58.10
2019-05-25T00:41:39.677Z,58.20
2019-05-25T00:43:15.990Z,58.00
2019-05-25T00:44:51.560Z,57.90
2019-05-25T00:46:27.827Z,57.90
2019-05-25T00:48:03.351Z,57.70
2019-05-25T00:49:40.621Z,57.90
2019-05-25T00:51:16.146Z,57.60
2019-05-25T00:52:52.531Z,57.60
2019-05-25T00:54:28.450Z,57.50
2019-05-25T00:56:05.205Z,57.50
2019-05-25T00:57:40.914Z,57.60
2019-05-25T00:59:17.219Z,57.50
2019-05-25T01:00:52.747Z,57.40
2019-05-25T01:02:29.083Z,57.60
2019-05-25T01:04:04.767Z,57.30
2019-05-25T01:05:41.093Z,57.30
2019-05-25T01:07:23.325Z,57.20
2019-05-25T01:09:00.499Z,57.40
2019-05-25T01:10:41.194Z,57.30
2019-05-25T01:12:16.709Z,57.40
2019-05-25T01:13:53.276Z,57.20
2019-05-25T01:15:28.876Z,57.80
2019-05-25T01:17:05.247Z,57.30
2019-05-25T01:18:40.778Z,57.40
2019-05-25T01:20:17.435Z,57.30
2019-05-25T01:21:52.961Z,57.30
2019-05-25T01:23:29.326Z,57.30
2019-05-25T01:25:06.911Z,57.60
2019-05-25T01:26:43.228Z,57.20
2019-05-25T01:28:18.777Z,57.20
2019-05-25T01:29:55.084Z,57.20
2019-05-25T01:31:30.621Z,57.10
2019-05-25T01:33:07.175Z,57.00
2019-05-25T01:34:42.720Z,57.00
2019-05-25T01:36:19.017Z,57.00
2019-05-25T01:37:54.803Z,57.10
2019-05-25T01:39:31.109Z,57.30
2019-05-25T01:41:06.616Z,57.30
2019-05-25T01:42:43.018Z,57.20
2019-05-25T01:44:18.591Z,57.20
2019-05-25T01:45:54.963Z,57.30
2019-05-25T01:47:30.556Z,57.40
2019-05-25T01:49:06.858Z,57.60
2019-05-25T01:50:42.975Z,57.80
2019-05-25T01:52:19.512Z,57.70
2019-05-25T01:53:55.036Z,57.70
2019-05-25T01:55:31.483Z,57.60
2019-05-25T01:57:07.111Z,57.80
2019-05-25T01:58:43.732Z,57.60
2019-05-25T02:00:20.983Z,57.80
2019-05-25T02:01:57.606Z,57.80
2019-05-25T02:03:33.470Z,57.00
2019-05-25T02:05:10.571Z,58.00
2019-05-25T02:06:46.116Z,58.00
2019-05-25T02:08:22.426Z,58.10
2019-05-25T02:09:57.952Z,58.30
2019-05-25T02:11:34.342Z,58.30
2019-05-25T02:13:09.860Z,58.60
2019-05-25T02:14:46.158Z,58.50
2019-05-25T02:16:21.712Z,58.30
2019-05-25T02:17:58.009Z,58.30
2019-05-25T02:19:33.527Z,58.20
2019-05-25T02:21:09.912Z,58.10
2019-05-25T02:22:45.457Z,58.10
2019-05-25T02:24:21.748Z,58.10
2019-05-25T02:25:57.311Z,57.80
2019-05-25T02:27:33.614Z,57.70
2019-05-25T02:29:09.149Z,57.70
2019-05-25T02:30:46.041Z,57.80
2019-05-25T02:32:21.585Z,58.00
2019-05-25T02:33:57.940Z,58.10
2019-05-25T02:35:33.718Z,58.20
2019-05-25T02:37:10.140Z,58.40
2019-05-25T02:38:45.672Z,58.40
2019-05-25T02:40:22.039Z,58.30
2019-05-25T02:41:57.562Z,58.30
2019-05-25T02:43:33.925Z,58.20
2019-05-25T02:45:09.539Z,58.40
2019-05-25T02:46:46.621Z,58.40
2019-05-25T02:48:22.156Z,58.30
2019-05-25T02:49:58.462Z,58.20
2019-05-25T02:51:33.984Z,58.20
2019-05-25T02:53:10.293Z,58.20
2019-05-25T02:54:46.270Z,58.30
2019-05-25T02:56:22.651Z,58.50
2019-05-25T02:57:58.199Z,58.60
2019-05-25T02:59:34.646Z,58.60
2019-05-25T03:01:11.323Z,58.50
2019-05-25T03:02:49.591Z,58.50
2019-05-25T03:04:25.080Z,58.60
2019-05-25T03:06:03.182Z,58.60
2019-05-25T03:07:40.337Z,58.60
2019-05-25T03:09:18.674Z,58.70
2019-05-25T03:10:54.660Z,58.80
2019-05-25T03:12:31.607Z,58.80
2019-05-25T03:14:07.185Z,58.60
2019-05-25T03:15:43.505Z,58.80
2019-05-25T03:17:19.062Z,58.80
2019-05-25T03:18:55.379Z,58.70
2019-05-25T03:20:31.027Z,58.70
2019-05-25T03:22:07.428Z,58.60
2019-05-25T03:23:42.956Z,58.70
2019-05-25T03:25:20.851Z,58.70
2019-05-25T03:26:56.375Z,58.60
2019-05-25T03:28:32.677Z,58.70
2019-05-25T03:30:09.258Z,58.70
2019-05-25T03:31:45.639Z,59.10
2019-05-25T03:33:21.147Z,58.90
2019-05-25T03:34:57.725Z,59.00
2019-05-25T03:36:33.256Z,59.10
2019-05-25T03:38:09.627Z,58.80
2019-05-25T03:39:45.143Z,58.80
2019-05-25T03:41:21.709Z,59.00
2019-05-25T03:42:57.249Z,58.90
2019-05-25T03:44:33.549Z,58.90
2019-05-25T03:46:09.074Z,58.90
2019-05-25T03:47:45.390Z,58.90
2019-05-25T03:49:22.042Z,59.00
2019-05-25T03:50:59.389Z,59.90
2019-05-25T03:52:36.162Z,59.20
2019-05-25T03:54:12.460Z,59.20
2019-05-25T03:55:48.045Z,59.20
2019-05-25T03:57:24.384Z,59.20
2019-05-25T03:58:59.924Z,59.30
2019-05-25T04:00:38.831Z,59.30
2019-05-25T04:02:14.680Z,59.30
2019-05-25T04:03:51.121Z,59.30
2019-05-25T04:05:26.681Z,59.30
2019-05-25T04:07:03.045Z,59.40
2019-05-25T04:08:38.574Z,59.40
2019-05-25T04:10:15.448Z,59.40
2019-05-25T04:11:50.992Z,59.50
2019-05-25T04:13:27.314Z,59.60
2019-05-25T04:15:03.182Z,59.60
2019-05-25T04:16:39.464Z,59.60
2019-05-25T04:18:15.279Z,59.60
2019-05-25T04:19:51.842Z,59.70
2019-05-25T04:21:28.355Z,59.70
2019-05-25T04:23:04.665Z,59.60
2019-05-25T04:24:40.338Z,59.60
2019-05-25T04:26:22.644Z,59.50
2019-05-25T04:27:54.233Z,59.60
2019-05-25T04:29:30.794Z,59.50
2019-05-25T04:31:06.328Z,59.60
2019-05-25T04:32:42.650Z,59.60
2019-05-25T04:34:18.165Z,59.70
2019-05-25T04:35:54.726Z,59.60
2019-05-25T04:37:30.239Z,59.60
2019-05-25T04:39:09.060Z,59.70
2019-05-25T04:40:44.893Z,59.70
2019-05-25T04:42:21.522Z,59.80
2019-05-25T04:43:57.046Z,59.80
2019-05-25T04:45:37.183Z,59.90
2019-05-25T04:47:26.073Z,59.90
2019-05-25T04:48:51.805Z,59.60
2019-05-25T04:50:27.331Z,59.50
2019-05-25T04:52:03.657Z,59.30
2019-05-25T04:53:40.272Z,59.30
2019-05-25T04:55:16.790Z,59.30
2019-05-25T04:56:52.316Z,59.30
2019-05-25T04:58:28.708Z,59.20
2019-05-25T05:00:06.874Z,59.20
2019-05-25T05:01:46.390Z,59.10
2019-05-25T05:03:28.671Z,59.10
2019-05-25T05:05:15.822Z,58.80
2019-05-25T05:06:57.458Z,59.00
2019-05-25T05:08:35.925Z,59.30
2019-05-25T05:10:12.072Z,59.60
2019-05-25T05:11:49.847Z,59.70
2019-05-25T05:13:28.334Z,59.90
2019-05-25T05:15:06.283Z,59.80
2019-05-25T05:16:44.785Z,60.30
2019-05-25T05:18:25.559Z,59.40
2019-05-25T05:20:02.221Z,59.20
2019-05-25T05:21:37.946Z,59.30
2019-05-25T05:23:17.269Z,59.40
2019-05-25T05:24:54.483Z,59.30
2019-05-25T05:26:34.158Z,58.90
2019-05-25T05:28:18.790Z,58.70
2019-05-25T05:30:00.321Z,58.30
2019-05-25T05:31:39.446Z,57.60
2019-05-25T05:33:17.223Z,57.10
2019-05-25T05:34:55.817Z,56.80
2019-05-25T05:36:40.029Z,56.70
2019-05-25T05:38:11.802Z,56.10
2019-05-25T05:39:54.624Z,55.80
2019-05-25T05:41:35.626Z,55.50
2019-05-25T05:43:13.075Z,55.30
2019-05-25T05:44:50.131Z,54.90
2019-05-25T05:46:29.182Z,54.70
2019-05-25T05:48:11.870Z,53.90
2019-05-25T05:49:53.761Z,53.30
2019-05-25T05:51:38.991Z,53.20
2019-05-25T05:53:20.232Z,52.90
2019-05-25T05:55:00.775Z,53.00
2019-05-25T05:56:37.242Z,52.40
2019-05-25T05:58:13.038Z,51.70
2019-05-25T06:00:05.284Z,50.70
2019-05-25T06:01:42.509Z,50.30
2019-05-25T06:03:19.429Z,49.40
2019-05-25T06:04:57.204Z,49.40
2019-05-25T06:06:34.336Z,49.20
2019-05-25T06:08:14.651Z,48.80
2019-05-25T06:09:53.756Z,48.50
2019-05-25T06:11:29.608Z,48.60
2019-05-25T06:13:06.260Z,48.30
2019-05-25T06:14:42.277Z,47.50
2019-05-25T06:16:19.611Z,47.10
2019-05-25T06:17:55.540Z,47.00
2019-05-25T06:19:31.437Z,46.60
2019-05-25T06:21:08.351Z,46.60
2019-05-25T06:22:46.269Z,46.30
2019-05-25T06:24:26.183Z,46.00
2019-05-25T06:26:01.802Z,46.00
2019-05-25T06:27:38.994Z,46.00
2019-05-25T06:29:30.624Z,45.50
2019-05-25T06:31:09.666Z,44.80
2019-05-25T06:32:47.779Z,43.70
2019-05-25T06:34:28.982Z,42.40
2019-05-25T06:36:10.531Z,42.60
2019-05-25T06:37:44.578Z,41.90
2019-05-25T06:39:21.817Z,41.20
2019-05-25T06:40:57.898Z,40.60
2019-05-25T06:42:34.056Z,40.00
2019-05-25T06:44:13.413Z,39.90
2019-05-25T06:45:49.930Z,40.40
2019-05-25T06:47:28.707Z,40.30
2019-05-25T06:49:05.088Z,40.30
2019-05-25T06:50:40.647Z,40.70
2019-05-25T06:52:16.981Z,40.30
2019-05-25T06:53:52.516Z,40.10
2019-05-25T06:55:28.917Z,39.70
2019-05-25T06:57:04.617Z,39.60
2019-05-25T06:58:40.923Z,39.50
2019-05-25T07:00:16.998Z,39.90
2019-05-25T07:01:53.314Z,39.90
2019-05-25T07:03:28.890Z,40.10
2019-05-25T07:05:10.626Z,40.00
2019-05-25T07:06:47.156Z,40.00
2019-05-25T07:08:23.709Z,39.80
2019-05-25T07:09:59.289Z,39.90
2019-05-25T07:11:35.562Z,39.80
2019-05-25T07:13:11.108Z,39.90
2019-05-25T07:14:47.434Z,39.80
2019-05-25T07:16:22.956Z,39.50
2019-05-25T07:17:59.274Z,38.90
2019-05-25T07:19:34.801Z,38.10
2019-05-25T07:21:11.363Z,38.30
2019-05-25T07:22:48.093Z,38.50
2019-05-25T07:24:24.418Z,38.50
2019-05-25T07:25:59.972Z,38.80
2019-05-25T07:27:36.306Z,38.40
2019-05-25T07:29:11.834Z,37.70
2019-05-25T07:30:49.219Z,37.30
2019-05-25T07:32:24.787Z,36.90
2019-05-25T07:34:01.076Z,36.30
2019-05-25T07:35:37.924Z,37.10
2019-05-25T07:37:14.225Z,36.90
2019-05-25T07:38:50.584Z,36.80
2019-05-25T07:40:26.995Z,37.20
2019-05-25T07:42:02.578Z,36.40
2019-05-25T07:43:39.242Z,36.20
2019-05-25T07:45:15.945Z,35.70
2019-05-25T07:46:52.254Z,35.70
2019-05-25T07:48:28.084Z,35.50
2019-05-25T07:50:06.796Z,35.70
2019-05-25T07:51:42.325Z,35.60
2019-05-25T07:53:18.659Z,35.80
2019-05-25T07:54:54.158Z,35.70
2019-05-25T07:56:30.782Z,35.10
2019-05-25T07:58:16.884Z,34.40
2019-05-25T07:59:44.342Z,34.40
2019-05-25T08:01:19.908Z,34.10
2019-05-25T08:02:56.303Z,34.60
2019-05-25T08:04:31.882Z,34.40
2019-05-25T08:06:08.246Z,34.10
2019-05-25T08:07:43.756Z,34.20
2019-05-25T08:09:20.096Z,34.20
2019-05-25T08:10:55.636Z,33.60
2019-05-25T08:12:31.957Z,33.90
2019-05-25T08:14:07.536Z,33.70
2019-05-25T08:15:44.055Z,34.10
2019-05-25T08:17:19.830Z,33.60
2019-05-25T08:18:56.126Z,34.00
2019-05-25T08:20:31.966Z,33.90
2019-05-25T08:22:08.311Z,34.10
2019-05-25T08:23:43.841Z,33.00
2019-05-25T08:25:20.745Z,33.00
2019-05-25T08:26:56.294Z,32.70
2019-05-25T08:28:33.378Z,32.30
2019-05-25T08:30:10.949Z,32.60
2019-05-25T08:31:47.327Z,32.40
2019-05-25T08:33:23.227Z,32.50
2019-05-25T08:35:01.219Z,33.40
2019-05-25T08:36:37.987Z,33.00
2019-05-25T08:38:14.396Z,32.80
2019-05-25T08:39:50.006Z,33.00
2019-05-25T08:41:26.318Z,33.20
2019-05-25T08:43:12.554Z,33.40
2019-05-25T08:44:45.949Z,33.60
2019-05-25T08:46:21.490Z,33.60
2019-05-25T08:47:57.800Z,34.10
2019-05-25T08:49:33.318Z,34.20
2019-05-25T08:51:09.635Z,34.40
2019-05-25T08:52:45.202Z,34.70
2019-05-25T08:54:21.518Z,35.00
2019-05-25T08:55:57.009Z,35.20
2019-05-25T08:57:34.177Z,35.40
2019-05-25T08:59:09.747Z,36.00
2019-05-25T09:00:47.414Z,35.80
2019-05-25T09:02:23.196Z,35.90
2019-05-25T09:03:59.525Z,36.10
2019-05-25T09:05:37.261Z,36.40
2019-05-25T09:07:13.570Z,36.70
2019-05-25T09:08:49.169Z,36.90
2019-05-25T09:10:27.963Z,37.20
2019-05-25T09:12:03.597Z,36.80
2019-05-25T09:13:40.463Z,36.60
2019-05-25T09:15:16.515Z,36.40
2019-05-25T09:16:52.916Z,36.70
2019-05-25T09:18:28.698Z,36.60
2019-05-25T09:20:07.863Z,36.50
2019-05-25T09:21:43.706Z,36.70
2019-05-25T09:23:20.315Z,36.90
2019-05-25T09:24:55.823Z,37.10
2019-05-25T09:26:32.125Z,36.90
2019-05-25T09:28:07.644Z,36.80
2019-05-25T09:29:44.915Z,36.70
2019-05-25T09:31:20.750Z,36.80
2019-05-25T09:32:57.059Z,36.50
2019-05-25T09:34:32.725Z,36.80
2019-05-25T09:36:09.038Z,36.50
2019-05-25T09:37:44.802Z,36.60
2019-05-25T09:39:21.102Z,36.40
2019-05-25T09:40:57.190Z,36.80
2019-05-25T09:42:34.479Z,36.40
2019-05-25T09:44:09.981Z,36.30
2019-05-25T09:45:47.048Z,35.90
2019-05-25T09:47:22.575Z,36.20
2019-05-25T09:48:58.886Z,36.50
2019-05-25T09:50:34.418Z,35.70
2019-05-25T09:52:10.708Z,35.60
2019-05-25T09:53:46.328Z,35.30
2019-05-25T09:55:22.704Z,35.10
2019-05-25T09:56:58.230Z,35.40
2019-05-25T09:58:34.533Z,35.10
2019-05-25T10:00:12.855Z,35.30
2019-05-25T10:01:49.336Z,35.50
2019-05-25T10:03:24.852Z,35.00
2019-05-25T10:05:01.143Z,35.00
2019-05-25T10:06:36.662Z,34.90
2019-05-25T10:08:12.964Z,35.00
2019-05-25T10:09:48.568Z,34.80
2019-05-25T10:11:24.916Z,34.70
2019-05-25T10:13:00.392Z,34.90
2019-05-25T10:14:36.679Z,34.90
2019-05-25T10:16:12.293Z,34.70
2019-05-25T10:17:49.743Z,34.60
2019-05-25T10:19:25.332Z,34.70
2019-05-25T10:21:01.621Z,35.00
2019-05-25T10:22:37.238Z,35.20
2019-05-25T10:24:13.526Z,34.50
2019-05-25T10:25:49.034Z,34.30
2019-05-25T10:27:25.351Z,34.20
2019-05-25T10:29:01.275Z,34.00
2019-05-25T10:30:37.565Z,34.20
2019-05-25T10:32:13.079Z,34.30
2019-05-25T10:33:50.203Z,34.70
2019-05-25T10:35:25.987Z,34.70
2019-05-25T10:37:02.283Z,34.60
2019-05-25T10:38:38.778Z,34.80
2019-05-25T10:40:15.474Z,35.00
2019-05-25T10:41:51.189Z,35.00
2019-05-25T10:43:27.573Z,35.20
2019-05-25T10:45:03.555Z,35.10
2019-05-25T10:46:39.872Z,35.70
2019-05-25T10:48:15.639Z,35.70
2019-05-25T10:49:51.930Z,36.10
2019-05-25T10:51:27.445Z,35.60
2019-05-25T10:53:03.794Z,35.40
2019-05-25T10:54:39.343Z,35.40
2019-05-25T10:56:15.640Z,35.60
2019-05-25T10:57:51.175Z,35.60
2019-05-25T10:59:27.467Z,35.80
2019-05-25T11:01:02.977Z,35.60
2019-05-25T11:02:39.572Z,35.60
2019-05-25T11:04:15.522Z,35.60
2019-05-25T11:05:51.813Z,36.00
2019-05-25T11:07:28.952Z,35.40
2019-05-25T11:09:07.233Z,35.40
2019-05-25T11:10:43.000Z,35.60
2019-05-25T11:12:20.912Z,35.90
2019-05-25T11:13:56.473Z,36.20
2019-05-25T11:15:32.754Z,36.40
2019-05-25T11:17:09.381Z,36.30
2019-05-25T11:18:45.684Z,36.50
2019-05-25T11:20:22.421Z,36.80
2019-05-25T11:21:58.716Z,36.60
2019-05-25T11:23:34.232Z,36.90
2019-05-25T11:25:11.871Z,37.10
2019-05-25T11:27:04.199Z,37.40
2019-05-25T11:28:40.550Z,37.10
2019-05-25T11:30:16.210Z,37.10
2019-05-25T11:31:56.530Z,37.20
2019-05-25T11:33:29.960Z,37.00
2019-05-25T11:35:10.658Z,37.00
2019-05-25T11:36:46.952Z,36.90
2019-05-25T11:38:22.467Z,36.90
2019-05-25T11:39:58.778Z,37.00
2019-05-25T11:41:34.297Z,37.00
2019-05-25T11:43:11.747Z,37.30
2019-05-25T11:44:47.289Z,37.70
2019-05-25T11:46:23.575Z,38.00
2019-05-25T11:47:59.095Z,37.90
2019-05-25T11:49:35.494Z,38.20
2019-05-25T11:51:11.074Z,38.20
2019-05-25T11:52:47.425Z,38.50
2019-05-25T11:54:22.993Z,38.10
2019-05-25T11:55:59.278Z,38.10
2019-05-25T11:57:34.795Z,38.10
2019-05-25T11:59:11.106Z,38.10
2019-05-25T12:00:46.619Z,38.20
2019-05-25T12:02:22.923Z,38.30
2019-05-25T12:03:58.447Z,38.10
2019-05-25T12:05:34.756Z,37.70
2019-05-25T12:07:10.262Z,37.30
2019-05-25T12:08:46.545Z,37.30
2019-05-25T12:10:22.458Z,37.50
2019-05-25T12:11:59.020Z,37.90
2019-05-25T12:13:34.529Z,38.20
2019-05-25T12:15:12.186Z,38.20
2019-05-25T12:16:47.708Z,37.60
2019-05-25T12:18:24.003Z,37.30
2019-05-25T12:19:59.526Z,36.90
2019-05-25T12:21:36.260Z,36.60
2019-05-25T12:23:14.345Z,36.60
2019-05-25T12:24:50.227Z,36.70
2019-05-25T12:26:26.005Z,36.90
2019-05-25T12:28:02.363Z,37.00
2019-05-25T12:29:38.253Z,37.40
2019-05-25T12:31:14.630Z,37.80
2019-05-25T12:32:50.175Z,38.10
2019-05-25T12:34:26.545Z,38.00
2019-05-25T12:36:02.278Z,38.00
2019-05-25T12:37:38.572Z,38.00
2019-05-25T12:39:14.096Z,37.80
2019-05-25T12:40:53.586Z,37.70
2019-05-25T12:42:27.852Z,37.20
2019-05-25T12:44:05.934Z,36.90
2019-05-25T12:45:42.290Z,36.70
2019-05-25T12:47:18.731Z,36.50
2019-05-25T12:48:54.241Z,36.10
2019-05-25T12:50:30.543Z,36.00
2019-05-25T12:52:06.109Z,35.70
2019-05-25T12:53:42.429Z,35.30
2019-05-25T12:55:18.103Z,35.10
2019-05-25T12:56:55.693Z,34.90
2019-05-25T12:58:31.323Z,34.60
2019-05-25T13:00:16.908Z,35.10
2019-05-25T13:01:46.509Z,35.10
2019-05-25T13:03:22.813Z,35.40
2019-05-25T13:04:58.377Z,35.50
2019-05-25T13:06:34.669Z,35.30
2019-05-25T13:08:10.181Z,35.40
2019-05-25T13:09:46.854Z,35.40
2019-05-25T13:11:22.365Z,35.30
2019-05-25T13:13:01.890Z,35.40
2019-05-25T13:14:35.921Z,34.90
2019-05-25T13:16:12.283Z,35.60
2019-05-25T13:17:47.837Z,35.80
2019-05-25T13:19:24.135Z,35.70
2019-05-25T13:20:59.654Z,36.10
2019-05-25T13:22:36.031Z,35.80
2019-05-25T13:24:11.570Z,35.90
2019-05-25T13:25:47.837Z,36.20
2019-05-25T13:27:23.349Z,36.20
2019-05-25T13:28:59.638Z,36.00
2019-05-25T13:30:35.165Z,36.00
2019-05-25T13:32:12.438Z,36.00
2019-05-25T13:33:47.957Z,35.30
2019-05-25T13:35:25.479Z,35.70
2019-05-25T13:37:02.066Z,35.90
2019-05-25T13:38:39.466Z,36.00
2019-05-25T13:40:15.546Z,35.70
2019-05-25T13:41:51.854Z,35.50
2019-05-25T13:43:27.735Z,35.30
2019-05-25T13:45:04.193Z,35.00
2019-05-25T13:46:39.706Z,35.20
2019-05-25T13:48:17.707Z,35.20
2019-05-25T13:49:53.259Z,35.20
2019-05-25T13:51:29.572Z,35.30
2019-05-25T13:53:05.094Z,35.60
2019-05-25T13:54:42.359Z,35.70
2019-05-25T13:56:17.895Z,35.80
2019-05-25T13:57:54.204Z,36.20
2019-05-25T13:59:29.728Z,36.40
2019-05-25T14:01:06.320Z,36.30
2019-05-25T14:02:41.832Z,36.60
2019-05-25T14:04:18.380Z,36.60
2019-05-25T14:05:53.911Z,37.00
2019-05-25T14:07:30.213Z,36.60
2019-05-25T14:09:07.756Z,36.60
2019-05-25T14:10:44.089Z,36.70
2019-05-25T14:12:19.670Z,36.50
2019-05-25T14:13:56.932Z,36.70
2019-05-25T14:15:32.583Z,36.70
2019-05-25T14:17:08.870Z,36.90
2019-05-25T14:18:44.460Z,36.90
2019-05-25T14:20:30.967Z,37.10
2019-05-25T14:22:07.368Z,36.90
2019-05-25T14:23:43.301Z,37.00
2019-05-25T14:25:19.856Z,37.10
2019-05-25T14:26:55.416Z,37.30
2019-05-25T14:28:31.743Z,37.50
2019-05-25T14:30:08.854Z,37.60
2019-05-25T14:31:46.305Z,37.80
2019-05-25T14:33:25.082Z,38.40
2019-05-25T14:35:02.760Z,38.50
2019-05-25T14:36:39.333Z,38.70
2019-05-25T14:38:15.471Z,38.90
2019-05-25T14:39:51.084Z,39.20
2019-05-25T14:41:27.382Z,39.40
2019-05-25T14:43:02.882Z,39.30
2019-05-25T14:44:39.187Z,39.30
2019-05-25T14:46:27.546Z,39.60
2019-05-25T14:47:54.242Z,39.60
2019-05-25T14:49:30.591Z,40.00
2019-05-25T14:51:06.964Z,40.20
2019-05-25T14:52:43.519Z,40.50
2019-05-25T14:54:20.340Z,40.30
2019-05-25T14:55:56.364Z,40.50
2019-05-25T14:57:32.978Z,41.60
2019-05-25T14:59:08.454Z,41.60
2019-05-25T15:00:44.918Z,41.30
2019-05-25T15:02:20.502Z,41.20
2019-05-25T15:03:56.845Z,41.30
2019-05-25T15:05:32.343Z,41.50
2019-05-25T15:07:08.750Z,41.50
2019-05-25T15:08:44.536Z,41.40
2019-05-25T15:10:21.104Z,40.80
2019-05-25T15:11:57.048Z,40.60
2019-05-25T15:13:33.603Z,40.40
2019-05-25T15:15:10.212Z,40.40
2019-05-25T15:16:48.018Z,40.20
2019-05-25T15:18:23.521Z,40.50
2019-05-25T15:20:00.087Z,40.60
2019-05-25T15:21:35.771Z,40.50
2019-05-25T15:23:12.115Z,40.30
2019-05-25T15:24:47.646Z,40.30
2019-05-25T15:26:25.026Z,40.40
2019-05-25T15:28:00.813Z,40.30
2019-05-25T15:29:37.354Z,40.60
2019-05-25T15:31:12.911Z,40.70
2019-05-25T15:32:49.210Z,40.60
2019-05-25T15:34:25.250Z,40.60
2019-05-25T15:36:01.567Z,40.50
2019-05-25T15:37:37.084Z,40.70
2019-05-25T15:39:13.386Z,40.70
2019-05-25T15:40:48.900Z,40.60
2019-05-25T15:42:25.208Z,40.80
2019-05-25T15:44:01.050Z,40.80
2019-05-25T15:45:37.345Z,40.90
2019-05-25T15:47:13.052Z,41.00
2019-05-25T15:48:49.360Z,41.30
2019-05-25T15:50:27.689Z,40.90
2019-05-25T15:52:04.464Z,41.20
2019-05-25T15:53:39.996Z,41.40
2019-05-25T15:55:16.474Z,41.40
2019-05-25T15:56:51.996Z,41.50
2019-05-25T15:58:28.321Z,41.80
2019-05-25T16:00:09.661Z,41.50
2019-05-25T16:01:45.958Z,41.80
2019-05-25T16:03:22.054Z,41.80
2019-05-25T16:04:58.364Z,42.20
2019-05-25T16:06:34.154Z,42.10
2019-05-25T16:08:10.490Z,42.00
2019-05-25T16:09:46.010Z,42.00
2019-05-25T16:11:22.293Z,42.10
2019-05-25T16:12:57.820Z,42.20
2019-05-25T16:14:34.235Z,42.40
2019-05-25T16:16:09.783Z,42.60
2019-05-25T16:17:46.136Z,42.90
2019-05-25T16:19:28.159Z,43.10
2019-05-25T16:21:09.339Z,43.10
2019-05-25T16:27:44.478Z,43.10
2019-05-25T16:29:19.814Z,42.80
2019-05-25T16:30:59.946Z,42.90
2019-05-25T16:33:07.023Z,43.10
2019-05-25T16:35:28.319Z,43.10
2019-05-25T16:37:00.246Z,43.30
2019-05-25T16:38:38.280Z,43.30
2019-05-25T16:40:16.541Z,43.30
2019-05-25T16:42:31.296Z,43.10
2019-05-25T16:44:06.810Z,43.20
2019-05-25T16:45:43.149Z,43.60
2019-05-25T16:47:18.676Z,43.50
2019-05-25T16:48:55.020Z,43.30
2019-05-25T16:50:30.548Z,43.20
2019-05-25T16:54:18.604Z,43.30
2019-05-25T16:56:00.870Z,43.20
2019-05-25T16:57:40.276Z,43.00
2019-05-25T16:59:29.098Z,42.90
2019-05-25T17:01:07.028Z,43.00
2019-05-25T17:02:47.783Z,43.00
2019-05-25T17:04:48.095Z,43.00
2019-05-25T17:06:27.174Z,43.00
2019-05-25T17:08:59.429Z,43.20
2019-05-25T17:10:42.095Z,42.80
2019-05-25T17:12:18.434Z,42.30
2019-05-25T17:13:56.107Z,42.00
2019-05-25T17:33:17.929Z,42.10
2019-05-25T17:34:54.235Z,42.30
2019-05-25T17:36:29.773Z,42.70
2019-05-25T17:38:06.309Z,42.80
2019-05-25T17:39:41.830Z,42.80
2019-05-25T17:41:18.420Z,43.10
2019-05-25T17:42:53.947Z,43.10
2019-05-25T17:44:30.278Z,43.20
2019-05-25T17:46:05.862Z,43.30
2019-05-25T17:47:42.193Z,43.30
2019-05-25T17:49:17.742Z,43.50
2019-05-25T17:50:54.042Z,43.50
2019-05-25T17:52:29.588Z,43.60
2019-05-25T17:54:06.217Z,43.90
2019-05-25T17:55:42.792Z,44.00
2019-05-25T17:57:19.209Z,43.90
2019-05-25T17:58:54.700Z,43.80
2019-05-25T18:00:41.779Z,43.70
2019-05-25T18:02:18.108Z,43.40
2019-05-25T18:04:06.556Z,43.40
2019-05-25T18:05:31.704Z,43.50
2019-05-25T18:07:07.245Z,43.50
2019-05-25T18:08:43.552Z,43.60
2019-05-25T18:10:19.202Z,43.50
2019-05-25T18:11:55.520Z,43.40
2019-05-25T18:13:31.057Z,43.40
2019-05-25T18:15:10.452Z,43.20
2019-05-25T18:16:45.967Z,43.00
2019-05-25T18:18:22.407Z,42.90
2019-05-25T18:19:57.952Z,42.50
2019-05-25T18:21:34.287Z,42.40
2019-05-25T18:23:10.584Z,42.30
2019-05-25T18:24:46.943Z,42.10
2019-05-25T18:26:22.434Z,42.10
2019-05-25T18:27:58.743Z,41.90
2019-05-25T18:29:34.354Z,41.80
2019-05-25T18:31:11.987Z,41.90
2019-05-25T18:32:47.502Z,41.90
2019-05-25T18:34:24.272Z,42.00
2019-05-25T18:36:00.150Z,42.00
2019-05-25T18:37:36.479Z,42.00
2019-05-25T18:39:11.978Z,42.10
2019-05-25T18:40:48.466Z,42.20
2019-05-25T18:42:29.490Z,42.10
2019-05-25T18:44:03.868Z,42.30
2019-05-25T18:45:39.704Z,42.50
2019-05-25T18:47:16.006Z,42.50
2019-05-25T18:48:51.920Z,42.70
2019-05-25T18:50:28.554Z,42.70
2019-05-25T18:52:04.077Z,42.80
2019-05-25T18:53:40.410Z,42.90
2019-05-25T18:55:17.205Z,43.10
2019-05-25T18:56:53.505Z,43.30
2019-05-25T18:58:29.092Z,43.40
2019-05-25T19:00:08.343Z,43.70
2019-05-25T19:01:43.952Z,43.80
2019-05-25T19:03:20.238Z,43.90
2019-05-25T19:04:59.882Z,44.00
2019-05-25T19:06:33.877Z,44.20
2019-05-25T19:08:09.465Z,44.40
2019-05-25T19:09:45.763Z,43.70
2019-05-25T19:11:21.330Z,44.70
2019-05-25T19:12:57.679Z,44.90
2019-05-25T19:14:33.473Z,45.00
2019-05-25T19:16:09.810Z,45.20
2019-05-25T19:17:45.344Z,45.40
2019-05-25T19:19:21.673Z,45.50
2019-05-25T19:20:57.210Z,45.70
2019-05-25T19:22:33.506Z,45.80
2019-05-25T19:24:09.030Z,46.00
2019-05-25T19:25:45.445Z,46.20
2019-05-25T19:27:21.462Z,46.30
2019-05-25T19:28:57.810Z,46.40
2019-05-25T19:30:33.380Z,46.60
2019-05-25T19:32:09.911Z,46.70
2019-05-25T19:33:45.466Z,46.90
2019-05-25T19:35:21.911Z,46.90
2019-05-25T19:36:57.456Z,47.70
2019-05-25T19:38:33.820Z,47.20
2019-05-25T19:40:09.948Z,47.40
2019-05-25T19:41:46.262Z,47.50
2019-05-25T19:43:21.848Z,47.70
2019-05-25T19:44:58.186Z,47.90
2019-05-25T19:46:33.725Z,48.10
2019-05-25T19:48:10.163Z,48.50
2019-05-25T19:49:45.689Z,48.40
2019-05-25T19:51:22.254Z,48.60
2019-05-25T19:52:57.778Z,48.60
2019-05-25T19:54:34.469Z,48.80
2019-05-25T19:56:09.993Z,49.00
2019-05-25T19:57:46.306Z,49.20
2019-05-25T19:59:21.828Z,49.40
2019-05-25T20:00:59.122Z,49.40
2019-05-25T20:02:34.639Z,49.70
2019-05-25T20:04:11.191Z,49.50
2019-05-25T20:05:46.711Z,49.70
2019-05-25T20:07:23.032Z,49.70
2019-05-25T20:08:58.591Z,49.90
2019-05-25T20:10:34.881Z,50.00
2019-05-25T20:12:10.510Z,50.00
2019-05-25T20:13:46.962Z,50.00
2019-05-25T20:15:22.853Z,50.30
2019-05-25T20:16:59.236Z,50.50
2019-05-25T20:18:34.757Z,50.70
2019-05-25T20:20:12.774Z,50.50
2019-05-25T20:21:48.368Z,51.30
2019-05-25T20:23:24.656Z,51.00
2019-05-25T20:25:00.171Z,51.00
2019-05-25T20:26:36.494Z,50.80
2019-05-25T20:28:12.261Z,51.00
2019-05-25T20:29:48.659Z,51.40
2019-05-25T20:31:24.201Z,51.40
2019-05-25T20:33:00.517Z,51.60
2019-05-25T20:34:36.046Z,51.70
2019-05-25T20:36:12.345Z,51.70
2019-05-25T20:37:47.968Z,51.70
2019-05-25T20:39:24.283Z,52.00
2019-05-25T20:41:00.558Z,52.10
2019-05-25T20:42:36.856Z,52.00
2019-05-25T20:44:12.371Z,52.30
2019-05-25T20:45:48.963Z,52.60
2019-05-25T20:47:24.562Z,52.50
2019-05-25T20:49:00.859Z,52.80
2019-05-25T20:50:36.385Z,52.80
2019-05-25T20:52:12.680Z,53.20
2019-05-25T20:53:48.523Z,53.10
2019-05-25T20:55:24.829Z,53.10
2019-05-25T20:57:00.355Z,53.40
2019-05-25T20:58:39.067Z,53.40
2019-05-25T21:00:14.521Z,53.40
2019-05-25T21:01:50.831Z,53.60
2019-05-25T21:03:26.346Z,53.80
2019-05-25T21:05:02.992Z,53.70
2019-05-25T21:06:38.485Z,53.70
2019-05-25T21:08:14.856Z,53.70
2019-05-25T21:09:50.371Z,53.70
2019-05-25T21:11:26.745Z,54.10
2019-05-25T21:13:02.296Z,53.80